logo
Search for airport 
image banner adimage banner adimage banner ad
image banner ad

EI0030 - Limerick Sarsfield Barracks

Located in Limerick, Ireland

ICAO - , IATA -

Data provided by Airmate  

General information

Coordinates: N52°39'18" W8°37'51"
Elevation is 76 feet MSL.
Magnetic variation is -2° East
View others Airports in County Limerick

Operational data

Special qualification required
Current time UTC:
Current local time:
Weather at : EINN - Shannon ( 20 km )
METAR: EINN 280200Z 15009KT 7000 -RA FEW006 BKN018 13/12 Q1006 BECMG 4000 BKN010
TAF: TAF EINN 272300Z 2800/2824 17009KT 7000 -RADZ FEW015 BKN030 TEMPO 2800/2801 4000 BKN012 BECMG 2801/2803 4000 -RA BR BKN012 BECMG 2803/2805 23012KT BKN006 PROB40 TEMPO 2804/2808 2000 BKN003 BECMG 2807/2809 9999 NSW FEW010 BKN020 TEMPO 2809/2813 -SHRA BKN010 BECMG 2812/2814 26012KT PROB30 TEMPO 2813/2817 24015G25KT
View NOTAMs / SUP AIP / TFR affecting this airport [VIEW]
Communications frequencies: [VIEW]

Runways:

Airport contact information

Address: Limerick Ireland

Satellite view of EI0030